Time,TemperatureF,DewpointF,PressureIn,WindDirection,WindDirectionDegrees,WindSpeedMPH,WindSpeedGustMPH,Humidity,HourlyPrecipIn,Conditions,Clouds,dailyrainin,SoftwareType,DateUTC
2013-11-23 00:12:00,31.0,7.0,-100.00,NE,56,15.0,22.0,36,-99.99,,,-99.99,,2013-11-23 08:12:00,
2013-11-23 00:21:00,31.0,7.0,-100.00,NE,51,15.0,21.0,36,-99.99,,,-99.99,,2013-11-23 08:21:00,
2013-11-23 00:32:00,31.0,7.0,-100.00,NE,51,15.0,21.0,36,-99.99,,,-99.99,,2013-11-23 08:32:00,
2013-11-23 00:42:00,31.0,7.0,-100.00,NE,51,15.0,21.0,36,-99.99,,,-99.99,,2013-11-23 08:42:00,
2013-11-23 01:22:00,31.0,7.0,-100.00,NE,54,13.0,18.0,36,-99.99,,,-99.99,,2013-11-23 09:22:00,
2013-11-23 01:43:00,31.0,7.0,-100.00,ENE,64,15.0,22.0,36,-99.99,,,-99.99,,2013-11-23 09:43:00,
2013-11-23 01:54:00,31.0,7.0,-100.00,NE,55,13.0,21.0,36,-99.99,,,-99.99,,2013-11-23 09:54:00,
2013-11-23 02:03:00,31.0,7.0,-100.00,NE,55,13.0,21.0,36,-99.99,,,-99.99,,2013-11-23 10:03:00,
2013-11-23 02:23:00,30.0,8.0,-100.00,ENE,71,9.0,15.0,38,-99.99,,,-99.99,,2013-11-23 10:23:00,
2013-11-23 02:33:00,30.0,8.0,-100.00,ENE,71,9.0,15.0,38,-99.99,,,-99.99,,2013-11-23 10:33:00,
2013-11-23 03:12:00,29.0,9.0,-100.00,ENE,71,5.0,12.0,42,-99.99,,,-99.99,,2013-11-23 11:12:00,
2013-11-23 03:22:00,29.0,9.0,-100.00,ENE,71,5.0,12.0,42,-99.99,,,-99.99,,2013-11-23 11:22:00,
2013-11-23 03:43:00,28.0,8.0,-100.00,East,96,6.0,18.0,43,-99.99,,,-99.99,,2013-11-23 11:43:00,
2013-11-23 03:52:00,29.0,6.0,-100.00,ENE,78,8.0,17.0,37,-99.99,,,-99.99,,2013-11-23 11:52:00,
2013-11-23 04:02:00,29.0,6.0,-100.00,ENE,78,8.0,17.0,37,-99.99,,,-99.99,,2013-11-23 12:02:00,
2013-11-23 04:11:00,29.0,6.0,-100.00,ENE,78,8.0,17.0,37,-99.99,,,-99.99,,2013-11-23 12:11:00,
2013-11-23 04:22:00,28.0,6.0,-100.00,ENE,64,5.0,11.0,39,-99.99,,,-99.99,,2013-11-23 12:22:00,
2013-11-23 04:32:00,28.0,6.0,-100.00,ENE,64,5.0,11.0,39,-99.99,,,-99.99,,2013-11-23 12:32:00,
2013-11-23 04:42:00,28.0,6.0,-100.00,ENE,64,5.0,11.0,39,-99.99,,,-99.99,,2013-11-23 12:42:00,
2013-11-23 04:52:00,28.0,6.0,-100.00,ENE,64,5.0,11.0,39,-99.99,,,-99.99,,2013-11-23 12:52:00,
2013-11-23 05:11:00,30.0,5.0,-100.00,ENE,78,8.0,15.0,34,-99.99,,,-99.99,,2013-11-23 13:11:00,
2013-11-23 05:22:00,30.0,5.0,-100.00,ENE,78,8.0,15.0,34,-99.99,,,-99.99,,2013-11-23 13:22:00,
2013-11-23 05:42:00,30.0,3.0,-100.00,ENE,61,11.0,15.0,31,-99.99,,,-99.99,,2013-11-23 13:42:00,
2013-11-23 05:52:00,32.0,3.0,-100.00,NE,54,13.0,20.0,29,-99.99,,,-99.99,,2013-11-23 13:52:00,
2013-11-23 06:02:00,32.0,3.0,-100.00,NE,54,13.0,20.0,29,-99.99,,,-99.99,,2013-11-23 14:02:00,
2013-11-23 06:11:00,32.0,3.0,-100.00,NE,54,13.0,20.0,29,-99.99,,,-99.99,,2013-11-23 14:11:00,
2013-11-23 06:21:00,32.0,3.0,-100.00,NE,54,13.0,20.0,29,-99.99,,,-99.99,,2013-11-23 14:21:00,
2013-11-23 06:42:00,30.0,4.0,-100.00,NE,56,6.0,10.0,32,-99.99,,,-99.99,,2013-11-23 14:42:00,
2013-11-23 07:11:00,30.0,3.0,-100.00,ENE,59,6.0,10.0,31,-99.99,,,-99.99,,2013-11-23 15:11:00,
2013-11-23 07:22:00,30.0,4.0,-100.00,ENE,75,7.0,14.0,32,-99.99,,,-99.99,,2013-11-23 15:22:00,
2013-11-23 07:33:00,30.0,4.0,-100.00,ENE,75,7.0,14.0,32,-99.99,,,-99.99,,2013-11-23 15:33:00,
2013-11-23 07:43:00,30.0,4.0,-100.00,ENE,75,7.0,14.0,32,-99.99,,,-99.99,,2013-11-23 15:43:00,
2013-11-23 07:54:00,29.0,4.0,-100.00,ENE,78,6.0,12.0,34,-99.99,,,-99.99,,2013-11-23 15:54:00,
2013-11-23 08:04:00,29.0,4.0,-100.00,ENE,78,6.0,12.0,34,-99.99,,,-99.99,,2013-11-23 16:04:00,
2013-11-23 08:23:00,30.0,6.0,-100.00,East,96,4.0,9.0,36,-99.99,,,-99.99,,2013-11-23 16:23:00,
2013-11-23 08:43:00,32.0,2.0,-100.00,ENE,61,12.0,18.0,27,-99.99,,,-99.99,,2013-11-23 16:43:00,
2013-11-23 09:11:00,34.0,4.0,-100.00,ENE,73,13.0,22.0,28,-99.99,,,-99.99,,2013-11-23 17:11:00,
2013-11-23 09:22:00,34.0,1.0,-100.00,ENE,64,10.0,20.0,24,-99.99,,,-99.99,,2013-11-23 17:22:00,
2013-11-23 09:42:00,35.0,5.0,-100.00,ENE,62,7.0,11.0,28,-99.99,,,-99.99,,2013-11-23 17:42:00,
2013-11-23 10:20:00,37.0,4.0,-100.00,East,79,6.0,11.0,25,-99.99,,,-99.99,,2013-11-23 18:20:00,
2013-11-23 10:22:00,35.0,4.0,-100.00,ENE,65,10.0,14.0,27,-99.99,,,-99.99,,2013-11-23 18:22:00,
2013-11-23 10:32:00,35.0,4.0,-100.00,ENE,65,10.0,14.0,27,-99.99,,,-99.99,,2013-11-23 18:32:00,
2013-11-23 10:42:00,35.0,4.0,-100.00,ENE,65,10.0,14.0,27,-99.99,,,-99.99,,2013-11-23 18:42:00,
2013-11-23 10:52:00,37.0,4.0,-100.00,East,79,6.0,11.0,25,-99.99,,,-99.99,,2013-11-23 18:52:00,
2013-11-23 11:01:00,37.0,4.0,-100.00,East,79,6.0,11.0,25,-99.99,,,-99.99,,2013-11-23 19:01:00,
2013-11-23 11:11:00,37.0,4.0,-100.00,East,79,6.0,11.0,25,-99.99,,,-99.99,,2013-11-23 19:11:00,
2013-11-23 12:11:00,37.0,4.0,-100.00,ENE,76,8.0,15.0,24,-99.99,,,-99.99,,2013-11-23 20:11:00,
2013-11-23 12:21:00,37.0,4.0,-100.00,ENE,76,8.0,15.0,24,-99.99,,,-99.99,,2013-11-23 20:21:00,
2013-11-23 12:52:00,37.0,4.0,-100.00,NE,52,13.0,17.0,24,-99.99,,,-99.99,,2013-11-23 20:52:00,
2013-11-23 13:02:00,37.0,4.0,-100.00,NE,52,13.0,17.0,24,-99.99,,,-99.99,,2013-11-23 21:02:00,
2013-11-23 13:21:00,39.0,6.0,-100.00,NE,34,7.0,12.0,25,-99.99,,,-99.99,,2013-11-23 21:21:00,
2013-11-23 13:43:00,39.0,8.0,-100.00,ENE,72,10.0,16.0,27,-99.99,,,-99.99,,2013-11-23 21:43:00,
2013-11-23 13:53:00,39.0,8.0,-100.00,ENE,72,10.0,16.0,27,-99.99,,,-99.99,,2013-11-23 21:53:00,
2013-11-23 14:03:00,39.0,8.0,-100.00,ENE,72,10.0,16.0,27,-99.99,,,-99.99,,2013-11-23 22:03:00,
2013-11-23 14:23:00,39.0,9.0,-100.00,NNE,32,9.0,13.0,28,-99.99,,,-99.99,,2013-11-23 22:23:00,
2013-11-23 14:43:00,39.0,7.0,-100.00,NE,47,8.0,16.0,26,-99.99,,,-99.99,,2013-11-23 22:43:00,
2013-11-23 14:52:00,39.0,7.0,-100.00,ENE,61,12.0,16.0,26,-99.99,,,-99.99,,2013-11-23 22:52:00,
2013-11-23 15:02:00,39.0,7.0,-100.00,ENE,61,12.0,16.0,26,-99.99,,,-99.99,,2013-11-23 23:02:00,
2013-11-23 15:21:00,39.0,7.0,-100.00,ENE,73,7.0,10.0,26,-99.99,,,-99.99,,2013-11-23 23:21:00,
2013-11-23 15:33:00,39.0,7.0,-100.00,ENE,73,7.0,10.0,26,-99.99,,,-99.99,,2013-11-23 23:33:00,
2013-11-23 15:42:00,39.0,7.0,-100.00,ENE,73,7.0,10.0,26,-99.99,,,-99.99,,2013-11-23 23:42:00,
2013-11-23 16:11:00,39.0,7.0,-100.00,East,83,4.0,7.0,26,-99.99,,,-99.99,,2013-11-24 00:11:00,
2013-11-23 16:42:00,37.0,7.0,-100.00,NE,47,4.0,5.0,28,-99.99,,,-99.99,,2013-11-24 00:42:00,
2013-11-23 16:52:00,35.0,7.0,-100.00,North,8,5.0,7.0,31,-99.99,,,-99.99,,2013-11-24 00:52:00,
2013-11-23 17:01:00,35.0,7.0,-100.00,North,8,5.0,7.0,31,-99.99,,,-99.99,,2013-11-24 01:01:00,
2013-11-23 17:22:00,34.0,7.0,-100.00,North,10,6.0,9.0,32,-99.99,,,-99.99,,2013-11-24 01:22:00,
2013-11-23 17:32:00,34.0,7.0,-100.00,North,10,6.0,9.0,32,-99.99,,,-99.99,,2013-11-24 01:32:00,
2013-11-23 17:42:00,34.0,7.0,-100.00,North,10,6.0,9.0,32,-99.99,,,-99.99,,2013-11-24 01:42:00,
2013-11-23 17:52:00,34.0,8.0,-100.00,North,1,7.0,9.0,33,-99.99,,,-99.99,,2013-11-24 01:52:00,
2013-11-23 18:01:00,34.0,8.0,-100.00,North,1,7.0,9.0,33,-99.99,,,-99.99,,2013-11-24 02:01:00,
2013-11-23 18:22:00,34.0,8.0,-100.00,North,3,6.0,7.0,33,-99.99,,,-99.99,,2013-11-24 02:22:00,
2013-11-23 18:42:00,34.0,8.0,-100.00,North,7,6.0,8.0,33,-99.99,,,-99.99,,2013-11-24 02:42:00,
2013-11-23 18:52:00,34.0,8.0,-100.00,North,7,6.0,8.0,33,-99.99,,,-99.99,,2013-11-24 02:52:00,
2013-11-23 19:22:00,32.0,10.0,-100.00,NNE,28,3.0,5.0,39,-99.99,,,-99.99,,2013-11-24 03:22:00,
2013-11-23 19:43:00,32.0,10.0,-100.00,North,10,1.0,2.0,40,-99.99,,,-99.99,,2013-11-24 03:43:00,
2013-11-23 19:53:00,32.0,10.0,-100.00,WNW,301,1.0,2.0,40,-99.99,,,-99.99,,2013-11-24 03:53:00,
2013-11-23 20:02:00,-999.0,-99.9,-100.00,WNW,301,1.0,2.0,40,-99.99,,,-99.99,,2013-11-24 04:02:00,
2013-11-23 20:13:00,32.0,10.0,-100.00,WNW,301,1.0,2.0,40,-99.99,,,-99.99,,2013-11-24 04:13:00,
2013-11-23 20:23:00,32.0,10.0,-100.00,WNW,301,1.0,2.0,40,-99.99,,,-99.99,,2013-11-24 04:23:00,
2013-11-23 20:43:00,32.0,11.0,-100.00,WSW,241,2.0,3.0,41,-99.99,,,-99.99,,2013-11-24 04:43:00,
2013-11-23 21:12:00,32.0,10.0,-100.00,SW,226,1.0,3.0,40,-99.99,,,-99.99,,2013-11-24 05:12:00,
2013-11-23 21:22:00,32.0,11.0,-100.00,WNW,282,2.0,3.0,41,-99.99,,,-99.99,,2013-11-24 05:22:00,
2013-11-23 21:43:00,32.0,10.0,-100.00,West,280,2.0,3.0,40,-99.99,,,-99.99,,2013-11-24 05:43:00,
2013-11-23 21:53:00,32.0,10.0,-100.00,WSW,250,1.0,2.0,39,-99.99,,,-99.99,,2013-11-24 05:53:00,
2013-11-23 22:02:00,32.0,10.0,-100.00,WSW,250,1.0,2.0,39,-99.99,,,-99.99,,2013-11-24 06:02:00,
2013-11-23 22:12:00,32.0,10.0,-100.00,WSW,250,1.0,2.0,39,-99.99,,,-99.99,,2013-11-24 06:12:00,
2013-11-23 22:21:00,32.0,10.0,-100.00,WSW,250,1.0,2.0,39,-99.99,,,-99.99,,2013-11-24 06:21:00,
2013-11-23 22:42:00,31.0,12.0,-100.00,SW,217,2.0,3.0,45,-99.99,,,-99.99,,2013-11-24 06:42:00,
2013-11-23 22:52:00,31.0,12.0,-100.00,SW,217,2.0,3.0,45,-99.99,,,-99.99,,2013-11-24 06:52:00,
2013-11-23 23:02:00,31.0,12.0,-100.00,SW,217,2.0,3.0,45,-99.99,,,-99.99,,2013-11-24 07:02:00,
2013-11-23 23:11:00,31.0,12.0,-100.00,SW,217,2.0,3.0,45,-99.99,,,-99.99,,2013-11-24 07:11:00,
2013-11-23 23:42:00,31.0,10.0,-100.00,NNW,347,2.0,3.0,40,-99.99,,,-99.99,,2013-11-24 07:42:00,
2013-11-23 23:52:00,31.0,9.0,-100.00,North,350,4.0,5.0,39,-99.99,,,-99.99,,2013-11-24 07:52:00,